sensor_id;sensor_type;location;lat;lon;timestamp;temperature;humidity
17887;DHT22;9069;52.044;7.472;2024-03-22T00:01:54;14.10;93.30
17887;DHT22;9069;52.044;7.472;2024-03-22T00:04:20;14.20;93.40
17887;DHT22;9069;52.044;7.472;2024-03-22T00:06:48;14.10;93.40
17887;DHT22;9069;52.044;7.472;2024-03-22T00:09:15;14.20;93.50
17887;DHT22;9069;52.044;7.472;2024-03-22T00:11:41;14.20;93.50
17887;DHT22;9069;52.044;7.472;2024-03-22T00:14:08;14.20;93.50
17887;DHT22;9069;52.044;7.472;2024-03-22T00:16:34;14.20;93.50
17887;DHT22;9069;52.044;7.472;2024-03-22T00:19:01;14.20;93.60
17887;DHT22;9069;52.044;7.472;2024-03-22T00:21:27;14.20;93.60
17887;DHT22;9069;52.044;7.472;2024-03-22T00:23:53;14.20;93.70
17887;DHT22;9069;52.044;7.472;2024-03-22T00:26:19;14.20;93.70
17887;DHT22;9069;52.044;7.472;2024-03-22T00:28:45;14.20;93.70
17887;DHT22;9069;52.044;7.472;2024-03-22T00:31:11;14.20;93.80
17887;DHT22;9069;52.044;7.472;2024-03-22T00:33:37;14.20;93.80
17887;DHT22;9069;52.044;7.472;2024-03-22T00:36:03;14.20;93.80
17887;DHT22;9069;52.044;7.472;2024-03-22T00:38:36;14.20;93.90
17887;DHT22;9069;52.044;7.472;2024-03-22T00:41:02;14.20;93.90
17887;DHT22;9069;52.044;7.472;2024-03-22T00:43:29;14.20;93.90
17887;DHT22;9069;52.044;7.472;2024-03-22T00:45:55;14.30;93.90
17887;DHT22;9069;52.044;7.472;2024-03-22T00:48:21;14.20;93.90
17887;DHT22;9069;52.044;7.472;2024-03-22T00:50:47;14.20;94.00
17887;DHT22;9069;52.044;7.472;2024-03-22T00:53:13;14.30;94.00
17887;DHT22;9069;52.044;7.472;2024-03-22T00:55:39;14.30;94.10
17887;DHT22;9069;52.044;7.472;2024-03-22T00:58:05;14.30;94.10
17887;DHT22;9069;52.044;7.472;2024-03-22T01:00:31;14.30;94.10
17887;DHT22;9069;52.044;7.472;2024-03-22T01:02:57;14.30;93.90
17887;DHT22;9069;52.044;7.472;2024-03-22T01:05:23;14.30;94.20
17887;DHT22;9069;52.044;7.472;2024-03-22T01:07:49;14.30;94.20
17887;DHT22;9069;52.044;7.472;2024-03-22T01:10:15;14.30;94.30
17887;DHT22;9069;52.044;7.472;2024-03-22T01:12:40;14.30;94.30
17887;DHT22;9069;52.044;7.472;2024-03-22T01:15:07;14.30;94.30
17887;DHT22;9069;52.044;7.472;2024-03-22T01:17:34;14.30;94.40
17887;DHT22;9069;52.044;7.472;2024-03-22T01:20:00;14.30;94.40
17887;DHT22;9069;52.044;7.472;2024-03-22T01:22:27;14.30;94.50
17887;DHT22;9069;52.044;7.472;2024-03-22T01:24:53;14.30;94.50
17887;DHT22;9069;52.044;7.472;2024-03-22T01:27:19;14.40;94.50
17887;DHT22;9069;52.044;7.472;2024-03-22T01:29:46;14.30;94.50
17887;DHT22;9069;52.044;7.472;2024-03-22T01:32:13;14.40;94.70
17887;DHT22;9069;52.044;7.472;2024-03-22T01:34:38;14.40;94.60
17887;DHT22;9069;52.044;7.472;2024-03-22T01:37:04;14.40;94.70
17887;DHT22;9069;52.044;7.472;2024-03-22T01:39:30;14.40;95.10
17887;DHT22;9069;52.044;7.472;2024-03-22T01:41:56;14.40;94.70
17887;DHT22;9069;52.044;7.472;2024-03-22T01:44:29;14.40;94.80
17887;DHT22;9069;52.044;7.472;2024-03-22T01:46:56;14.40;95.10
17887;DHT22;9069;52.044;7.472;2024-03-22T01:49:25;14.40;94.90
17887;DHT22;9069;52.044;7.472;2024-03-22T01:51:51;14.40;95.00
17887;DHT22;9069;52.044;7.472;2024-03-22T01:54:17;14.40;94.90
17887;DHT22;9069;52.044;7.472;2024-03-22T01:56:44;14.40;95.00
17887;DHT22;9069;52.044;7.472;2024-03-22T01:59:12;14.40;95.00
17887;DHT22;9069;52.044;7.472;2024-03-22T02:01:38;14.40;95.10
17887;DHT22;9069;52.044;7.472;2024-03-22T02:04:05;14.40;95.10
17887;DHT22;9069;52.044;7.472;2024-03-22T02:06:31;14.40;95.10
17887;DHT22;9069;52.044;7.472;2024-03-22T02:08:57;14.40;95.20
17887;DHT22;9069;52.044;7.472;2024-03-22T02:11:25;14.40;95.20
17887;DHT22;9069;52.044;7.472;2024-03-22T02:13:52;14.40;95.30
17887;DHT22;9069;52.044;7.472;2024-03-22T02:16:18;14.40;95.30
17887;DHT22;9069;52.044;7.472;2024-03-22T02:18:44;14.40;95.30
17887;DHT22;9069;52.044;7.472;2024-03-22T02:21:13;14.40;95.40
17887;DHT22;9069;52.044;7.472;2024-03-22T02:23:40;14.40;95.40
17887;DHT22;9069;52.044;7.472;2024-03-22T02:26:07;14.40;95.50
17887;DHT22;9069;52.044;7.472;2024-03-22T02:28:34;14.40;95.50
17887;DHT22;9069;52.044;7.472;2024-03-22T02:31:04;14.40;95.50
17887;DHT22;9069;52.044;7.472;2024-03-22T02:33:30;14.40;95.60
17887;DHT22;9069;52.044;7.472;2024-03-22T02:35:56;14.40;95.60
17887;DHT22;9069;52.044;7.472;2024-03-22T02:38:23;14.50;95.60
17887;DHT22;9069;52.044;7.472;2024-03-22T02:40:51;14.50;95.70
17887;DHT22;9069;52.044;7.472;2024-03-22T02:43:17;14.50;95.70
17887;DHT22;9069;52.044;7.472;2024-03-22T02:45:47;14.50;95.70
17887;DHT22;9069;52.044;7.472;2024-03-22T02:48:14;14.50;95.90
17887;DHT22;9069;52.044;7.472;2024-03-22T02:50:40;14.50;95.90
17887;DHT22;9069;52.044;7.472;2024-03-22T02:53:06;14.50;95.90
17887;DHT22;9069;52.044;7.472;2024-03-22T02:55:41;14.50;95.90
17887;DHT22;9069;52.044;7.472;2024-03-22T02:58:08;14.50;96.20
17887;DHT22;9069;52.044;7.472;2024-03-22T03:00:37;14.50;96.00
17887;DHT22;9069;52.044;7.472;2024-03-22T03:03:05;14.50;96.20
17887;DHT22;9069;52.044;7.472;2024-03-22T03:05:31;14.50;96.10
17887;DHT22;9069;52.044;7.472;2024-03-22T03:07:56;14.60;96.10
17887;DHT22;9069;52.044;7.472;2024-03-22T03:10:22;14.60;96.10
17887;DHT22;9069;52.044;7.472;2024-03-22T03:12:48;14.60;96.10
17887;DHT22;9069;52.044;7.472;2024-03-22T03:15:15;14.60;96.10
17887;DHT22;9069;52.044;7.472;2024-03-22T03:17:41;14.60;96.10
17887;DHT22;9069;52.044;7.472;2024-03-22T03:20:07;14.60;96.10
17887;DHT22;9069;52.044;7.472;2024-03-22T03:22:42;14.60;96.10
17887;DHT22;9069;52.044;7.472;2024-03-22T03:25:08;14.60;96.10
17887;DHT22;9069;52.044;7.472;2024-03-22T03:27:34;14.60;96.10
17887;DHT22;9069;52.044;7.472;2024-03-22T03:30:00;14.60;96.10
17887;DHT22;9069;52.044;7.472;2024-03-22T03:32:27;14.60;96.10
17887;DHT22;9069;52.044;7.472;2024-03-22T03:34:53;14.60;96.10
17887;DHT22;9069;52.044;7.472;2024-03-22T03:37:19;14.60;96.20
17887;DHT22;9069;52.044;7.472;2024-03-22T03:39:47;14.60;96.20
17887;DHT22;9069;52.044;7.472;2024-03-22T03:42:13;14.60;96.30
17887;DHT22;9069;52.044;7.472;2024-03-22T03:44:39;14.60;96.20
17887;DHT22;9069;52.044;7.472;2024-03-22T03:47:05;14.60;96.30
17887;DHT22;9069;52.044;7.472;2024-03-22T03:49:31;14.60;96.30
17887;DHT22;9069;52.044;7.472;2024-03-22T03:51:57;14.60;96.30
17887;DHT22;9069;52.044;7.472;2024-03-22T03:54:23;14.60;96.30
17887;DHT22;9069;52.044;7.472;2024-03-22T03:56:49;14.60;96.40
17887;DHT22;9069;52.044;7.472;2024-03-22T03:59:15;14.60;96.40
17887;DHT22;9069;52.044;7.472;2024-03-22T04:01:41;14.60;96.40
17887;DHT22;9069;52.044;7.472;2024-03-22T04:04:06;14.60;96.40
17887;DHT22;9069;52.044;7.472;2024-03-22T04:06:32;14.60;96.50
17887;DHT22;9069;52.044;7.472;2024-03-22T04:08:58;14.60;96.50
17887;DHT22;9069;52.044;7.472;2024-03-22T04:11:25;14.60;96.50
17887;DHT22;9069;52.044;7.472;2024-03-22T04:13:50;14.60;96.60
17887;DHT22;9069;52.044;7.472;2024-03-22T04:16:16;14.60;96.60
17887;DHT22;9069;52.044;7.472;2024-03-22T04:18:42;14.60;96.60
17887;DHT22;9069;52.044;7.472;2024-03-22T04:21:08;14.60;96.60
17887;DHT22;9069;52.044;7.472;2024-03-22T04:23:34;14.60;96.60
17887;DHT22;9069;52.044;7.472;2024-03-22T04:26:01;14.60;96.60
17887;DHT22;9069;52.044;7.472;2024-03-22T04:28:30;14.60;96.70
17887;DHT22;9069;52.044;7.472;2024-03-22T04:33:30;14.60;96.80
17887;DHT22;9069;52.044;7.472;2024-03-22T04:35:57;14.60;96.70
17887;DHT22;9069;52.044;7.472;2024-03-22T04:38:24;14.70;96.70
17887;DHT22;9069;52.044;7.472;2024-03-22T04:40:50;14.70;96.70
17887;DHT22;9069;52.044;7.472;2024-03-22T04:43:16;14.70;96.70
17887;DHT22;9069;52.044;7.472;2024-03-22T04:45:43;14.70;96.70
17887;DHT22;9069;52.044;7.472;2024-03-22T04:48:09;14.70;96.80
17887;DHT22;9069;52.044;7.472;2024-03-22T04:50:35;14.70;96.70
17887;DHT22;9069;52.044;7.472;2024-03-22T04:53:02;14.70;96.70
17887;DHT22;9069;52.044;7.472;2024-03-22T04:55:28;14.70;96.80
17887;DHT22;9069;52.044;7.472;2024-03-22T04:57:54;14.70;96.80
17887;DHT22;9069;52.044;7.472;2024-03-22T05:00:19;14.60;96.80
17887;DHT22;9069;52.044;7.472;2024-03-22T05:02:45;14.60;96.80
17887;DHT22;9069;52.044;7.472;2024-03-22T05:05:12;14.60;96.80
17887;DHT22;9069;52.044;7.472;2024-03-22T05:07:38;14.60;96.90
17887;DHT22;9069;52.044;7.472;2024-03-22T05:10:04;14.60;96.90
17887;DHT22;9069;52.044;7.472;2024-03-22T05:12:31;14.70;97.00
17887;DHT22;9069;52.044;7.472;2024-03-22T05:14:57;14.60;97.00
17887;DHT22;9069;52.044;7.472;2024-03-22T05:17:22;14.70;97.00
17887;DHT22;9069;52.044;7.472;2024-03-22T05:19:48;14.60;97.40
17887;DHT22;9069;52.044;7.472;2024-03-22T05:22:14;14.70;97.10
17887;DHT22;9069;52.044;7.472;2024-03-22T05:24:40;14.60;97.10
17887;DHT22;9069;52.044;7.472;2024-03-22T05:27:07;14.70;97.10
17887;DHT22;9069;52.044;7.472;2024-03-22T05:29:33;14.70;97.20
17887;DHT22;9069;52.044;7.472;2024-03-22T05:31:59;14.70;97.20
17887;DHT22;9069;52.044;7.472;2024-03-22T05:34:27;14.70;97.20
17887;DHT22;9069;52.044;7.472;2024-03-22T05:36:52;14.70;97.20
17887;DHT22;9069;52.044;7.472;2024-03-22T05:39:18;14.70;97.20
17887;DHT22;9069;52.044;7.472;2024-03-22T05:41:44;14.80;97.30
17887;DHT22;9069;52.044;7.472;2024-03-22T05:44:11;14.80;97.20
17887;DHT22;9069;52.044;7.472;2024-03-22T05:46:37;14.80;97.20
17887;DHT22;9069;52.044;7.472;2024-03-22T05:49:03;14.80;97.30
17887;DHT22;9069;52.044;7.472;2024-03-22T05:51:29;14.80;97.30
17887;DHT22;9069;52.044;7.472;2024-03-22T05:53:56;14.80;97.30
17887;DHT22;9069;52.044;7.472;2024-03-22T05:56:22;14.80;97.40
17887;DHT22;9069;52.044;7.472;2024-03-22T05:58:48;14.90;97.30
17887;DHT22;9069;52.044;7.472;2024-03-22T06:01:14;14.90;97.30
17887;DHT22;9069;52.044;7.472;2024-03-22T06:03:40;14.90;97.30
17887;DHT22;9069;52.044;7.472;2024-03-22T06:06:06;14.90;97.30
17887;DHT22;9069;52.044;7.472;2024-03-22T06:08:32;14.90;97.30
17887;DHT22;9069;52.044;7.472;2024-03-22T06:11:00;14.90;97.30
17887;DHT22;9069;52.044;7.472;2024-03-22T06:13:29;15.00;97.30
17887;DHT22;9069;52.044;7.472;2024-03-22T06:15:57;15.00;97.30
17887;DHT22;9069;52.044;7.472;2024-03-22T06:18:23;15.00;97.30
17887;DHT22;9069;52.044;7.472;2024-03-22T06:20:49;15.00;97.30
17887;DHT22;9069;52.044;7.472;2024-03-22T06:23:15;15.00;97.30
17887;DHT22;9069;52.044;7.472;2024-03-22T06:25:41;15.00;97.30
17887;DHT22;9069;52.044;7.472;2024-03-22T06:28:07;15.00;97.30
17887;DHT22;9069;52.044;7.472;2024-03-22T06:30:33;15.10;97.30
17887;DHT22;9069;52.044;7.472;2024-03-22T06:32:58;15.10;97.30
17887;DHT22;9069;52.044;7.472;2024-03-22T06:35:24;15.00;97.30
17887;DHT22;9069;52.044;7.472;2024-03-22T06:37:50;15.10;97.30
17887;DHT22;9069;52.044;7.472;2024-03-22T06:40:16;15.10;97.30
17887;DHT22;9069;52.044;7.472;2024-03-22T06:42:42;15.20;97.30
17887;DHT22;9069;52.044;7.472;2024-03-22T06:45:08;15.20;97.30
17887;DHT22;9069;52.044;7.472;2024-03-22T06:47:34;15.20;97.30
17887;DHT22;9069;52.044;7.472;2024-03-22T06:50:00;15.20;97.30
17887;DHT22;9069;52.044;7.472;2024-03-22T06:52:27;15.20;97.20
17887;DHT22;9069;52.044;7.472;2024-03-22T06:54:53;15.30;97.20
17887;DHT22;9069;52.044;7.472;2024-03-22T06:57:19;15.30;97.10
17887;DHT22;9069;52.044;7.472;2024-03-22T06:59:45;15.30;97.10
17887;DHT22;9069;52.044;7.472;2024-03-22T07:02:11;15.30;97.10
17887;DHT22;9069;52.044;7.472;2024-03-22T07:04:38;15.30;97.00
17887;DHT22;9069;52.044;7.472;2024-03-22T07:07:04;15.40;97.10
17887;DHT22;9069;52.044;7.472;2024-03-22T07:09:33;15.40;97.00
17887;DHT22;9069;52.044;7.472;2024-03-22T07:11:58;15.40;97.00
17887;DHT22;9069;52.044;7.472;2024-03-22T07:14:24;15.40;96.90
17887;DHT22;9069;52.044;7.472;2024-03-22T07:16:51;15.40;96.90
17887;DHT22;9069;52.044;7.472;2024-03-22T07:19:20;15.40;96.90
17887;DHT22;9069;52.044;7.472;2024-03-22T07:21:47;15.40;96.90
17887;DHT22;9069;52.044;7.472;2024-03-22T07:24:13;15.50;96.90
17887;DHT22;9069;52.044;7.472;2024-03-22T07:26:39;15.50;97.00
17887;DHT22;9069;52.044;7.472;2024-03-22T07:29:05;15.50;97.00
17887;DHT22;9069;52.044;7.472;2024-03-22T07:31:31;15.60;96.90
17887;DHT22;9069;52.044;7.472;2024-03-22T07:33:57;15.60;96.90
17887;DHT22;9069;52.044;7.472;2024-03-22T07:36:22;15.60;96.80
17887;DHT22;9069;52.044;7.472;2024-03-22T07:38:48;15.70;96.70
17887;DHT22;9069;52.044;7.472;2024-03-22T07:41:17;15.70;96.60
17887;DHT22;9069;52.044;7.472;2024-03-22T07:43:43;15.70;96.60
17887;DHT22;9069;52.044;7.472;2024-03-22T07:46:09;15.80;96.50
17887;DHT22;9069;52.044;7.472;2024-03-22T07:48:35;15.80;96.40
17887;DHT22;9069;52.044;7.472;2024-03-22T07:51:01;15.80;96.40
17887;DHT22;9069;52.044;7.472;2024-03-22T07:53:31;15.80;96.30
17887;DHT22;9069;52.044;7.472;2024-03-22T07:55:57;15.80;96.30
17887;DHT22;9069;52.044;7.472;2024-03-22T07:58:23;15.90;96.30
17887;DHT22;9069;52.044;7.472;2024-03-22T08:00:48;15.90;96.20
17887;DHT22;9069;52.044;7.472;2024-03-22T08:03:15;15.90;96.10
17887;DHT22;9069;52.044;7.472;2024-03-22T08:05:42;15.90;96.00
17887;DHT22;9069;52.044;7.472;2024-03-22T08:08:08;16.00;95.90
17887;DHT22;9069;52.044;7.472;2024-03-22T08:10:34;16.00;95.80
17887;DHT22;9069;52.044;7.472;2024-03-22T08:13:00;16.00;95.80
17887;DHT22;9069;52.044;7.472;2024-03-22T08:15:27;16.00;95.70
17887;DHT22;9069;52.044;7.472;2024-03-22T08:17:53;16.00;95.70
17887;DHT22;9069;52.044;7.472;2024-03-22T08:23:10;16.10;95.60
17887;DHT22;9069;52.044;7.472;2024-03-22T08:25:36;16.10;95.60
17887;DHT22;9069;52.044;7.472;2024-03-22T08:28:02;16.20;95.40
17887;DHT22;9069;52.044;7.472;2024-03-22T08:30:29;16.20;95.20
17887;DHT22;9069;52.044;7.472;2024-03-22T08:32:55;16.20;95.10
17887;DHT22;9069;52.044;7.472;2024-03-22T08:35:20;16.20;94.90
17887;DHT22;9069;52.044;7.472;2024-03-22T08:37:46;16.30;94.80
17887;DHT22;9069;52.044;7.472;2024-03-22T08:40:12;16.30;94.70
17887;DHT22;9069;52.044;7.472;2024-03-22T08:42:39;16.30;94.50
17887;DHT22;9069;52.044;7.472;2024-03-22T08:45:06;16.30;94.40
17887;DHT22;9069;52.044;7.472;2024-03-22T08:47:32;16.30;94.30
17887;DHT22;9069;52.044;7.472;2024-03-22T08:50:00;16.30;94.10
17887;DHT22;9069;52.044;7.472;2024-03-22T08:52:27;16.30;94.00
17887;DHT22;9069;52.044;7.472;2024-03-22T08:54:53;16.30;94.00
17887;DHT22;9069;52.044;7.472;2024-03-22T08:57:19;16.30;94.00
17887;DHT22;9069;52.044;7.472;2024-03-22T08:59:45;16.20;94.00
17887;DHT22;9069;52.044;7.472;2024-03-22T09:02:11;16.20;94.00
17887;DHT22;9069;52.044;7.472;2024-03-22T09:04:38;16.30;94.00
17887;DHT22;9069;52.044;7.472;2024-03-22T09:07:05;16.20;93.90
17887;DHT22;9069;52.044;7.472;2024-03-22T09:09:30;16.20;94.40
17887;DHT22;9069;52.044;7.472;2024-03-22T09:11:56;16.30;94.10
17887;DHT22;9069;52.044;7.472;2024-03-22T09:14:22;16.30;94.10
17887;DHT22;9069;52.044;7.472;2024-03-22T09:16:48;16.30;94.10
17887;DHT22;9069;52.044;7.472;2024-03-22T09:19:14;16.40;94.10
17887;DHT22;9069;52.044;7.472;2024-03-22T09:21:40;16.40;94.10
17887;DHT22;9069;52.044;7.472;2024-03-22T09:24:06;16.40;94.10
17887;DHT22;9069;52.044;7.472;2024-03-22T09:26:32;16.50;94.00
17887;DHT22;9069;52.044;7.472;2024-03-22T09:28:58;16.50;94.00
17887;DHT22;9069;52.044;7.472;2024-03-22T09:31:24;16.60;93.90
17887;DHT22;9069;52.044;7.472;2024-03-22T09:33:50;16.70;93.70
17887;DHT22;9069;52.044;7.472;2024-03-22T09:36:17;16.70;93.50
17887;DHT22;9069;52.044;7.472;2024-03-22T09:38:42;16.70;93.30
17887;DHT22;9069;52.044;7.472;2024-03-22T09:41:08;16.80;93.20
17887;DHT22;9069;52.044;7.472;2024-03-22T09:43:35;16.80;93.10
17887;DHT22;9069;52.044;7.472;2024-03-22T09:46:06;16.90;93.00
17887;DHT22;9069;52.044;7.472;2024-03-22T09:48:33;16.90;92.60
17887;DHT22;9069;52.044;7.472;2024-03-22T09:51:00;16.80;92.50
17887;DHT22;9069;52.044;7.472;2024-03-22T09:53:30;17.00;92.40
17887;DHT22;9069;52.044;7.472;2024-03-22T09:55:59;16.90;92.30
17887;DHT22;9069;52.044;7.472;2024-03-22T09:58:28;16.90;92.10
17887;DHT22;9069;52.044;7.472;2024-03-22T10:00:54;16.90;92.10
17887;DHT22;9069;52.044;7.472;2024-03-22T10:03:28;16.80;91.90
17887;DHT22;9069;52.044;7.472;2024-03-22T10:05:55;16.80;91.90
17887;DHT22;9069;52.044;7.472;2024-03-22T10:08:20;16.80;91.90
17887;DHT22;9069;52.044;7.472;2024-03-22T10:10:47;16.80;91.90
17887;DHT22;9069;52.044;7.472;2024-03-22T10:13:13;16.70;91.90
17887;DHT22;9069;52.044;7.472;2024-03-22T10:15:39;16.80;91.90
17887;DHT22;9069;52.044;7.472;2024-03-22T10:18:04;16.70;91.80
17887;DHT22;9069;52.044;7.472;2024-03-22T10:20:30;16.60;91.80
17887;DHT22;9069;52.044;7.472;2024-03-22T10:22:58;16.60;91.80
17887;DHT22;9069;52.044;7.472;2024-03-22T10:25:25;16.50;91.80
17887;DHT22;9069;52.044;7.472;2024-03-22T10:27:54;16.50;91.90
17887;DHT22;9069;52.044;7.472;2024-03-22T10:30:20;16.50;91.90
17887;DHT22;9069;52.044;7.472;2024-03-22T10:32:50;16.50;92.00
17887;DHT22;9069;52.044;7.472;2024-03-22T10:35:16;16.40;92.00
17887;DHT22;9069;52.044;7.472;2024-03-22T10:37:42;16.40;92.00
17887;DHT22;9069;52.044;7.472;2024-03-22T10:40:09;16.40;92.00
17887;DHT22;9069;52.044;7.472;2024-03-22T10:42:37;16.30;92.00
17887;DHT22;9069;52.044;7.472;2024-03-22T10:45:04;16.30;92.00
17887;DHT22;9069;52.044;7.472;2024-03-22T10:47:33;16.20;92.10
17887;DHT22;9069;52.044;7.472;2024-03-22T10:52:52;16.20;92.30
17887;DHT22;9069;52.044;7.472;2024-03-22T10:55:27;16.20;92.40
17887;DHT22;9069;52.044;7.472;2024-03-22T10:57:57;16.20;92.50
17887;DHT22;9069;52.044;7.472;2024-03-22T11:00:31;16.10;92.50
17887;DHT22;9069;52.044;7.472;2024-03-22T11:02:58;16.10;92.60
17887;DHT22;9069;52.044;7.472;2024-03-22T11:05:25;16.00;92.70
17887;DHT22;9069;52.044;7.472;2024-03-22T11:08:00;16.00;92.80
17887;DHT22;9069;52.044;7.472;2024-03-22T11:10:29;16.00;93.00
17887;DHT22;9069;52.044;7.472;2024-03-22T11:13:04;15.90;93.00
17887;DHT22;9069;52.044;7.472;2024-03-22T11:15:31;15.90;93.20
17887;DHT22;9069;52.044;7.472;2024-03-22T11:17:57;15.90;93.30
17887;DHT22;9069;52.044;7.472;2024-03-22T11:20:25;15.90;93.30
17887;DHT22;9069;52.044;7.472;2024-03-22T11:22:51;15.90;93.40
17887;DHT22;9069;52.044;7.472;2024-03-22T11:25:18;15.90;93.40
17887;DHT22;9069;52.044;7.472;2024-03-22T11:27:45;15.80;93.40
17887;DHT22;9069;52.044;7.472;2024-03-22T11:30:11;15.80;93.40
17887;DHT22;9069;52.044;7.472;2024-03-22T11:32:39;15.80;93.40
17887;DHT22;9069;52.044;7.472;2024-03-22T11:35:10;16.00;93.50
17887;DHT22;9069;52.044;7.472;2024-03-22T11:37:41;15.80;93.40
17887;DHT22;9069;52.044;7.472;2024-03-22T11:40:11;15.80;93.50
17887;DHT22;9069;52.044;7.472;2024-03-22T11:42:51;15.80;93.50
17887;DHT22;9069;52.044;7.472;2024-03-22T11:45:18;15.80;93.70
17887;DHT22;9069;52.044;7.472;2024-03-22T11:47:47;15.70;93.70
17887;DHT22;9069;52.044;7.472;2024-03-22T11:50:14;15.70;93.80
17887;DHT22;9069;52.044;7.472;2024-03-22T11:52:43;15.70;93.80
17887;DHT22;9069;52.044;7.472;2024-03-22T11:55:12;15.70;94.00
17887;DHT22;9069;52.044;7.472;2024-03-22T11:57:38;15.70;94.00
17887;DHT22;9069;52.044;7.472;2024-03-22T12:00:05;15.70;94.10
17887;DHT22;9069;52.044;7.472;2024-03-22T12:02:41;15.60;94.10
17887;DHT22;9069;52.044;7.472;2024-03-22T12:05:07;15.60;94.20
17887;DHT22;9069;52.044;7.472;2024-03-22T12:07:34;15.60;94.30
17887;DHT22;9069;52.044;7.472;2024-03-22T12:10:00;15.60;94.50
17887;DHT22;9069;52.044;7.472;2024-03-22T12:12:28;15.60;94.60
17887;DHT22;9069;52.044;7.472;2024-03-22T12:14:53;15.60;94.70
17887;DHT22;9069;52.044;7.472;2024-03-22T12:17:19;15.50;94.70
17887;DHT22;9069;52.044;7.472;2024-03-22T12:19:45;15.50;94.80
17887;DHT22;9069;52.044;7.472;2024-03-22T12:22:11;15.50;95.00
17887;DHT22;9069;52.044;7.472;2024-03-22T12:24:38;15.60;95.50
17887;DHT22;9069;52.044;7.472;2024-03-22T12:27:04;15.60;95.30
17887;DHT22;9069;52.044;7.472;2024-03-22T12:29:33;15.60;95.80
17887;DHT22;9069;52.044;7.472;2024-03-22T12:32:00;15.60;95.60
17887;DHT22;9069;52.044;7.472;2024-03-22T12:34:30;15.60;95.60
17887;DHT22;9069;52.044;7.472;2024-03-22T12:36:56;15.60;95.70
17887;DHT22;9069;52.044;7.472;2024-03-22T12:39:22;15.60;95.70
17887;DHT22;9069;52.044;7.472;2024-03-22T12:41:48;15.70;95.70
17887;DHT22;9069;52.044;7.472;2024-03-22T12:44:14;15.60;95.70
17887;DHT22;9069;52.044;7.472;2024-03-22T12:46:39;15.70;95.80
17887;DHT22;9069;52.044;7.472;2024-03-22T12:49:07;15.70;95.80
17887;DHT22;9069;52.044;7.472;2024-03-22T12:51:35;15.70;95.80
17887;DHT22;9069;52.044;7.472;2024-03-22T12:54:03;15.70;95.80
17887;DHT22;9069;52.044;7.472;2024-03-22T12:56:30;15.70;95.90
17887;DHT22;9069;52.044;7.472;2024-03-22T12:58:55;15.70;95.90
17887;DHT22;9069;52.044;7.472;2024-03-22T13:01:21;15.70;96.00
17887;DHT22;9069;52.044;7.472;2024-03-22T13:03:47;15.70;96.00
17887;DHT22;9069;52.044;7.472;2024-03-22T13:06:13;15.50;96.00
17887;DHT22;9069;52.044;7.472;2024-03-22T13:08:39;15.70;96.20
17887;DHT22;9069;52.044;7.472;2024-03-22T13:11:05;15.70;96.30
17887;DHT22;9069;52.044;7.472;2024-03-22T13:13:35;15.70;96.30
17887;DHT22;9069;52.044;7.472;2024-03-22T13:16:01;15.70;96.40
17887;DHT22;9069;52.044;7.472;2024-03-22T13:18:29;15.70;96.30
17887;DHT22;9069;52.044;7.472;2024-03-22T13:20:55;15.60;96.40
17887;DHT22;9069;52.044;7.472;2024-03-22T13:23:22;15.60;96.40
17887;DHT22;9069;52.044;7.472;2024-03-22T13:25:48;15.60;96.50
17887;DHT22;9069;52.044;7.472;2024-03-22T13:28:14;15.60;96.50
17887;DHT22;9069;52.044;7.472;2024-03-22T13:30:40;15.60;96.50
17887;DHT22;9069;52.044;7.472;2024-03-22T13:33:06;15.60;96.60
17887;DHT22;9069;52.044;7.472;2024-03-22T13:35:34;15.50;96.60
17887;DHT22;9069;52.044;7.472;2024-03-22T13:38:00;15.70;96.60
17887;DHT22;9069;52.044;7.472;2024-03-22T13:40:27;15.50;96.60
17887;DHT22;9069;52.044;7.472;2024-03-22T13:42:53;15.50;96.60
17887;DHT22;9069;52.044;7.472;2024-03-22T13:45:19;15.50;96.60
17887;DHT22;9069;52.044;7.472;2024-03-22T13:47:46;15.50;96.60
17887;DHT22;9069;52.044;7.472;2024-03-22T13:50:12;15.50;96.70
17887;DHT22;9069;52.044;7.472;2024-03-22T13:52:38;15.50;96.70
17887;DHT22;9069;52.044;7.472;2024-03-22T13:55:04;15.40;96.70
17887;DHT22;9069;52.044;7.472;2024-03-22T13:57:30;15.40;96.80
17887;DHT22;9069;52.044;7.472;2024-03-22T13:59:57;15.40;96.90
17887;DHT22;9069;52.044;7.472;2024-03-22T14:02:23;15.40;96.90
17887;DHT22;9069;52.044;7.472;2024-03-22T14:04:49;15.40;96.90
17887;DHT22;9069;52.044;7.472;2024-03-22T14:07:15;15.40;96.90
17887;DHT22;9069;52.044;7.472;2024-03-22T14:09:41;15.40;97.00
17887;DHT22;9069;52.044;7.472;2024-03-22T14:12:08;15.40;97.00
17887;DHT22;9069;52.044;7.472;2024-03-22T14:14:34;15.30;97.00
17887;DHT22;9069;52.044;7.472;2024-03-22T14:17:00;15.30;97.00
17887;DHT22;9069;52.044;7.472;2024-03-22T14:19:27;15.30;97.00
17887;DHT22;9069;52.044;7.472;2024-03-22T14:21:53;15.30;97.00
17887;DHT22;9069;52.044;7.472;2024-03-22T14:24:19;15.30;97.00
17887;DHT22;9069;52.044;7.472;2024-03-22T14:26:45;15.30;97.00
17887;DHT22;9069;52.044;7.472;2024-03-22T14:29:11;15.30;97.00
17887;DHT22;9069;52.044;7.472;2024-03-22T14:31:38;15.30;97.10
17887;DHT22;9069;52.044;7.472;2024-03-22T14:34:06;15.30;97.20
17887;DHT22;9069;52.044;7.472;2024-03-22T14:36:32;15.30;97.30
17887;DHT22;9069;52.044;7.472;2024-03-22T14:38:58;15.30;97.30
17887;DHT22;9069;52.044;7.472;2024-03-22T14:41:24;15.30;97.40
17887;DHT22;9069;52.044;7.472;2024-03-22T14:43:53;15.30;97.40
17887;DHT22;9069;52.044;7.472;2024-03-22T14:46:20;15.30;97.50
17887;DHT22;9069;52.044;7.472;2024-03-22T14:48:50;15.20;97.40
17887;DHT22;9069;52.044;7.472;2024-03-22T14:51:16;15.30;97.50
17887;DHT22;9069;52.044;7.472;2024-03-22T14:53:42;15.30;97.50
17887;DHT22;9069;52.044;7.472;2024-03-22T14:56:08;15.30;97.50
17887;DHT22;9069;52.044;7.472;2024-03-22T14:58:35;15.30;97.60
17887;DHT22;9069;52.044;7.472;2024-03-22T15:01:02;15.30;97.60
17887;DHT22;9069;52.044;7.472;2024-03-22T15:03:29;15.30;97.70
17887;DHT22;9069;52.044;7.472;2024-03-22T15:05:58;15.30;97.70
17887;DHT22;9069;52.044;7.472;2024-03-22T15:08:29;15.30;97.80
17887;DHT22;9069;52.044;7.472;2024-03-22T15:10:55;15.30;97.70
17887;DHT22;9069;52.044;7.472;2024-03-22T15:13:22;15.20;97.80
17887;DHT22;9069;52.044;7.472;2024-03-22T15:15:52;15.20;97.90
17887;DHT22;9069;52.044;7.472;2024-03-22T15:18:19;15.20;98.10
17887;DHT22;9069;52.044;7.472;2024-03-22T15:20:46;15.20;97.90
17887;DHT22;9069;52.044;7.472;2024-03-22T15:23:13;15.20;98.00
17887;DHT22;9069;52.044;7.472;2024-03-22T15:25:39;15.20;98.00
17887;DHT22;9069;52.044;7.472;2024-03-22T15:28:05;15.20;98.00
17887;DHT22;9069;52.044;7.472;2024-03-22T15:30:31;15.20;98.00
17887;DHT22;9069;52.044;7.472;2024-03-22T15:33:00;15.20;98.10
17887;DHT22;9069;52.044;7.472;2024-03-22T15:35:32;15.20;98.10
17887;DHT22;9069;52.044;7.472;2024-03-22T15:37:58;15.20;98.10
17887;DHT22;9069;52.044;7.472;2024-03-22T15:40:26;15.20;98.10
17887;DHT22;9069;52.044;7.472;2024-03-22T15:42:52;15.20;98.20
17887;DHT22;9069;52.044;7.472;2024-03-22T15:45:18;15.20;98.20
17887;DHT22;9069;52.044;7.472;2024-03-22T15:47:45;15.20;98.20
17887;DHT22;9069;52.044;7.472;2024-03-22T15:50:11;15.20;98.20